Time,TemperatureF,DewpointF,PressureIn,WindDirection,WindDirectionDegrees,WindSpeedMPH,WindSpeedGustMPH,Humidity,HourlyPrecipIn,Conditions,Clouds,dailyrainin,SoftwareType,DateUTC
2013-01-22 00:01:00,30.7,15.1,30.34,NE,51,0.0,2.0,52,0.00,,,0.00,Wunderground v.1.15,2013-01-22 07:01:00,
2013-01-22 00:12:00,30.3,14.8,30.34,ENE,62,0.0,3.0,52,0.00,,,0.00,Wunderground v.1.15,2013-01-22 07:12:00,
2013-01-22 00:21:00,29.5,14.9,30.34,ENE,62,0.0,1.0,54,0.00,,,0.00,Wunderground v.1.15,2013-01-22 07:21:00,
2013-01-22 00:32:00,29.3,14.7,30.35,ENE,62,0.0,1.0,54,0.00,,,0.00,Wunderground v.1.15,2013-01-22 07:32:00,
2013-01-22 00:41:00,28.5,13.9,30.35,ENE,62,0.0,0.0,54,0.00,,,0.00,Wunderground v.1.15,2013-01-22 07:41:00,
2013-01-22 00:51:00,27.5,13.8,30.35,ENE,62,0.0,0.0,56,0.00,,,0.00,Wunderground v.1.15,2013-01-22 07:51:00,
2013-01-22 01:01:00,27.8,14.1,30.35,ENE,62,0.0,1.0,56,0.00,,,0.00,Wunderground v.1.15,2013-01-22 08:01:00,
2013-01-22 01:12:00,27.0,13.0,30.35,ENE,62,0.0,0.0,55,0.00,,,0.00,Wunderground v.1.15,2013-01-22 08:12:00,
2013-01-22 01:21:00,26.9,14.5,30.35,ENE,62,0.0,1.0,59,0.00,,,0.00,Wunderground v.1.15,2013-01-22 08:21:00,
2013-01-22 01:31:00,27.2,14.8,30.35,ENE,62,0.0,2.0,59,0.00,,,0.00,Wunderground v.1.15,2013-01-22 08:31:00,
2013-01-22 01:41:00,27.2,14.8,30.35,ENE,62,0.0,1.0,59,0.00,,,0.00,Wunderground v.1.15,2013-01-22 08:41:00,
2013-01-22 01:51:00,27.0,14.6,30.35,ENE,62,0.0,1.0,59,0.00,,,0.00,Wunderground v.1.15,2013-01-22 08:51:00,
2013-01-22 02:02:00,26.3,13.9,30.35,ENE,62,0.0,0.0,59,0.00,,,0.00,Wunderground v.1.15,2013-01-22 09:02:00,
2013-01-22 02:12:00,25.6,14.0,30.35,ENE,62,0.0,0.0,61,0.00,,,0.00,Wunderground v.1.15,2013-01-22 09:12:00,
2013-01-22 02:22:00,25.7,14.1,30.36,ENE,62,0.0,1.0,61,0.00,,,0.00,Wunderground v.1.15,2013-01-22 09:22:00,
2013-01-22 02:32:00,25.4,13.8,30.37,ENE,62,0.0,1.0,61,0.00,,,0.00,Wunderground v.1.15,2013-01-22 09:32:00,
2013-01-22 02:41:00,25.3,14.5,30.37,ENE,62,0.0,1.0,63,0.00,,,0.00,Wunderground v.1.15,2013-01-22 09:41:00,
2013-01-22 02:51:00,25.4,14.5,30.37,ENE,62,0.0,2.0,63,0.00,,,0.00,Wunderground v.1.15,2013-01-22 09:51:00,
2013-01-22 03:01:00,25.1,14.3,30.37,ENE,62,0.0,1.0,63,0.00,,,0.00,Wunderground v.1.15,2013-01-22 10:01:00,
2013-01-22 03:11:00,25.3,14.5,30.37,ENE,62,0.0,2.0,63,0.00,,,0.00,Wunderground v.1.15,2013-01-22 10:11:00,
2013-01-22 03:22:00,24.8,14.3,30.36,ENE,62,0.0,0.0,64,0.00,,,0.00,Wunderground v.1.15,2013-01-22 10:22:00,
2013-01-22 03:32:00,24.5,14.4,30.36,ENE,62,0.0,0.0,65,0.00,,,0.00,Wunderground v.1.15,2013-01-22 10:32:00,
2013-01-22 03:42:00,24.2,14.1,30.36,ENE,62,0.0,0.0,65,0.00,,,0.00,Wunderground v.1.15,2013-01-22 10:42:00,
2013-01-22 03:51:00,24.1,14.4,30.36,ENE,62,0.0,0.0,66,0.00,,,0.00,Wunderground v.1.15,2013-01-22 10:51:00,
2013-01-22 04:01:00,23.9,13.8,30.36,ENE,62,0.0,0.0,65,0.00,,,0.00,Wunderground v.1.15,2013-01-22 11:01:00,
2013-01-22 04:11:00,23.6,13.9,30.36,ENE,62,0.0,0.0,66,0.00,,,0.00,Wunderground v.1.15,2013-01-22 11:11:00,
2013-01-22 04:21:00,23.8,14.4,30.36,ENE,62,0.0,1.0,67,0.00,,,0.00,Wunderground v.1.15,2013-01-22 11:21:00,
2013-01-22 04:32:00,23.6,13.9,30.36,ENE,62,0.0,0.0,66,0.00,,,0.00,Wunderground v.1.15,2013-01-22 11:32:00,
2013-01-22 04:42:00,23.2,13.5,30.36,ENE,62,0.0,0.0,66,0.00,,,0.00,Wunderground v.1.15,2013-01-22 11:42:00,
2013-01-22 04:51:00,22.9,13.6,30.36,ENE,62,0.0,1.0,67,0.00,,,0.00,Wunderground v.1.15,2013-01-22 11:51:00,
2013-01-22 05:01:00,23.5,14.1,30.36,ENE,62,0.0,1.0,67,0.00,,,0.00,Wunderground v.1.15,2013-01-22 12:01:00,
2013-01-22 05:11:00,23.6,13.9,30.36,ENE,62,0.0,2.0,66,0.00,,,0.00,Wunderground v.1.15,2013-01-22 12:11:00,
2013-01-22 05:21:00,23.6,13.9,30.37,ENE,62,0.0,1.0,66,0.00,,,0.00,Wunderground v.1.15,2013-01-22 12:21:00,
2013-01-22 05:32:00,22.9,13.6,30.38,ENE,62,0.0,2.0,67,0.00,,,0.00,Wunderground v.1.15,2013-01-22 12:32:00,
2013-01-22 05:41:00,22.9,13.6,30.38,ENE,62,1.0,3.0,67,0.00,,,0.00,Wunderground v.1.15,2013-01-22 12:41:00,
2013-01-22 05:51:00,22.1,12.8,30.38,ENE,62,1.0,2.0,67,0.00,,,0.00,Wunderground v.1.15,2013-01-22 12:51:00,
2013-01-22 06:02:00,21.6,12.7,30.38,ENE,62,1.0,2.0,68,0.00,,,0.00,Wunderground v.1.15,2013-01-22 13:02:00,
2013-01-22 06:11:00,21.1,12.2,30.38,ENE,61,0.0,2.0,68,0.00,,,0.00,Wunderground v.1.15,2013-01-22 13:11:00,
2013-01-22 06:21:00,20.2,11.3,30.39,ENE,61,0.0,2.0,68,0.00,,,0.00,Wunderground v.1.15,2013-01-22 13:21:00,
2013-01-22 06:31:00,19.2,11.0,30.39,ENE,61,0.0,2.0,70,0.00,,,0.00,Wunderground v.1.15,2013-01-22 13:31:00,
2013-01-22 06:41:00,18.9,11.0,30.39,ENE,61,0.0,2.0,71,0.00,,,0.00,Wunderground v.1.15,2013-01-22 13:41:00,
2013-01-22 06:51:00,18.6,10.8,30.39,ENE,61,0.0,2.0,71,0.00,,,0.00,Wunderground v.1.15,2013-01-22 13:51:00,
2013-01-22 07:01:00,18.4,10.9,30.39,ENE,61,1.0,1.0,72,0.00,,,0.00,Wunderground v.1.15,2013-01-22 14:01:00,
2013-01-22 07:11:00,18.6,11.1,30.39,ENE,61,0.0,2.0,72,0.00,,,0.00,Wunderground v.1.15,2013-01-22 14:11:00,
2013-01-22 07:21:00,18.4,10.9,30.39,ENE,61,0.0,0.0,72,0.00,,,0.00,Wunderground v.1.15,2013-01-22 14:21:00,
2013-01-22 07:32:00,18.0,10.5,30.40,ENE,61,0.0,1.0,72,0.00,,,0.00,Wunderground v.1.15,2013-01-22 14:32:00,
2013-01-22 07:41:00,18.8,11.6,30.40,ENE,61,1.0,2.0,73,0.00,,,0.00,Wunderground v.1.15,2013-01-22 14:41:00,
2013-01-22 07:51:00,20.0,12.4,30.40,ENE,59,1.0,1.0,72,0.00,,,0.00,Wunderground v.1.15,2013-01-22 14:51:00,
2013-01-22 08:02:00,21.4,12.8,30.40,ENE,59,1.0,2.0,69,0.00,,,0.00,Wunderground v.1.15,2013-01-22 15:02:00,
2013-01-22 08:21:00,24.2,13.4,30.41,NE,53,1.0,2.0,63,0.00,,,0.00,Wunderground v.1.15,2013-01-22 15:21:00,
2013-01-22 08:41:00,26.4,13.2,30.41,NE,55,2.0,2.0,57,0.00,,,0.00,Wunderground v.1.15,2013-01-22 15:41:00,
2013-01-22 08:51:00,27.5,13.8,30.41,NNE,22,2.0,4.0,56,0.00,,,0.00,Wunderground v.1.15,2013-01-22 15:51:00,
2013-01-22 09:01:00,29.1,14.5,30.41,NNE,21,2.0,4.0,54,0.00,,,0.00,Wunderground v.1.15,2013-01-22 16:01:00,
2013-01-22 09:11:00,30.9,14.4,30.41,NNE,22,2.0,2.0,50,0.00,,,0.00,Wunderground v.1.15,2013-01-22 16:11:00,
2013-01-22 09:22:00,32.4,14.4,30.41,NE,47,3.0,6.0,47,0.00,,,0.00,Wunderground v.1.15,2013-01-22 16:22:00,
2013-01-22 09:31:00,33.2,14.1,30.41,ENE,67,2.0,5.0,45,0.00,,,0.00,Wunderground v.1.15,2013-01-22 16:31:00,
2013-01-22 09:41:00,34.3,14.6,30.41,NNE,27,2.0,5.0,44,0.00,,,0.00,Wunderground v.1.15,2013-01-22 16:41:00,
2013-01-22 09:52:00,35.8,14.4,30.40,NE,54,2.0,5.0,41,0.00,,,0.00,Wunderground v.1.15,2013-01-22 16:52:00,
2013-01-22 10:01:00,36.8,14.7,30.40,NNE,30,3.0,6.0,40,0.00,,,0.00,Wunderground v.1.15,2013-01-22 17:01:00,
2013-01-22 10:11:00,38.2,14.2,30.40,NE,34,1.0,4.0,37,0.00,,,0.00,Wunderground v.1.15,2013-01-22 17:11:00,
2013-01-22 10:21:00,39.3,13.9,30.40,NE,35,1.0,3.0,35,0.00,,,0.00,Wunderground v.1.15,2013-01-22 17:21:00,
2013-01-22 10:31:00,40.2,14.0,30.40,NE,38,2.0,4.0,34,0.00,,,0.00,Wunderground v.1.15,2013-01-22 17:31:00,
2013-01-22 10:41:00,41.5,14.5,30.40,NE,34,1.0,3.0,33,0.00,,,0.00,Wunderground v.1.15,2013-01-22 17:41:00,
2013-01-22 10:51:00,43.1,14.5,30.40,NNE,32,1.0,2.0,31,0.00,,,0.00,Wunderground v.1.15,2013-01-22 17:51:00,
2013-01-22 11:01:00,43.9,13.6,30.40,NNE,26,1.0,1.0,29,0.00,,,0.00,Wunderground v.1.15,2013-01-22 18:01:00,
2013-01-22 11:21:00,44.5,13.4,30.38,WSW,237,1.0,3.0,28,0.00,,,0.00,Wunderground v.1.15,2013-01-22 18:21:00,
2013-01-22 11:31:00,45.4,13.3,30.37,WSW,237,1.0,1.0,27,0.00,,,0.00,Wunderground v.1.15,2013-01-22 18:31:00,
2013-01-22 11:41:00,46.2,14.8,30.37,SE,138,1.0,4.0,28,0.00,,,0.00,Wunderground v.1.15,2013-01-22 18:41:00,
2013-01-22 11:51:00,47.0,14.7,30.36,SE,128,1.0,1.0,27,0.00,,,0.00,Wunderground v.1.15,2013-01-22 18:51:00,
2013-01-22 12:01:00,48.3,14.1,30.35,SSE,166,1.0,4.0,25,0.00,,,0.00,Wunderground v.1.15,2013-01-22 19:01:00,
2013-01-22 12:11:00,48.3,15.0,30.35,East,91,2.0,2.0,26,0.00,,,0.00,Wunderground v.1.15,2013-01-22 19:11:00,
2013-01-22 12:21:00,49.1,14.7,30.34,SSW,203,2.0,6.0,25,0.00,,,0.00,Wunderground v.1.15,2013-01-22 19:21:00,
2013-01-22 12:31:00,49.6,15.2,30.32,ESE,119,2.0,8.0,25,0.00,,,0.00,Wunderground v.1.15,2013-01-22 19:31:00,
2013-01-22 12:51:00,50.8,14.3,30.32,SE,134,3.0,6.0,23,0.00,,,0.00,Wunderground v.1.15,2013-01-22 19:51:00,
2013-01-22 13:01:00,51.4,13.8,30.31,SSW,200,2.0,6.0,22,0.00,,,0.00,Wunderground v.1.15,2013-01-22 20:01:00,
2013-01-22 13:12:00,51.6,13.9,30.31,SSW,204,2.0,2.0,22,0.00,,,0.00,Wunderground v.1.15,2013-01-22 20:12:00,
2013-01-22 13:21:00,52.8,13.9,30.30,SE,138,1.0,1.0,21,0.00,,,0.00,Wunderground v.1.15,2013-01-22 20:21:00,
2013-01-22 13:31:00,53.5,13.4,30.30,WSW,247,2.0,4.0,20,0.00,,,0.00,Wunderground v.1.15,2013-01-22 20:31:00,
2013-01-22 13:41:00,53.8,13.6,30.30,West,272,2.0,6.0,20,0.00,,,0.00,Wunderground v.1.15,2013-01-22 20:41:00,
2013-01-22 13:52:00,54.1,13.9,30.29,South,178,2.0,2.0,20,0.00,,,0.00,Wunderground v.1.15,2013-01-22 20:52:00,
2013-01-22 14:01:00,53.9,12.5,30.28,South,179,3.0,6.0,19,0.00,,,0.00,Wunderground v.1.15,2013-01-22 21:01:00,
2013-01-22 14:11:00,55.1,12.3,30.28,SW,217,3.0,3.0,18,0.00,,,0.00,Wunderground v.1.15,2013-01-22 21:11:00,
2013-01-22 14:21:00,55.9,12.9,30.28,SSW,207,3.0,3.0,18,0.00,,,0.00,Wunderground v.1.15,2013-01-22 21:21:00,
2013-01-22 14:31:00,56.2,11.9,30.27,SW,215,3.0,3.0,17,0.00,,,0.00,Wunderground v.1.15,2013-01-22 21:31:00,
2013-01-22 14:51:00,59.2,0.3,30.27,NW,306,5.0,11.0,9,0.00,,,0.00,Wunderground v.1.15,2013-01-22 21:51:00,
2013-01-22 15:21:00,59.9,0.8,30.27,WNW,294,6.0,14.0,9,0.00,,,0.00,Wunderground v.1.15,2013-01-22 22:21:00,
2013-01-22 15:31:00,60.2,-1.5,30.26,WNW,290,5.0,15.0,8,0.00,,,0.00,Wunderground v.1.15,2013-01-22 22:31:00,
2013-01-22 15:41:00,60.1,1.0,30.26,WNW,303,5.0,10.0,9,0.00,,,0.00,Wunderground v.1.15,2013-01-22 22:41:00,
2013-01-22 15:51:00,60.2,1.0,30.26,NW,322,4.0,9.0,9,0.00,,,0.00,Wunderground v.1.15,2013-01-22 22:51:00,
2013-01-22 16:01:00,60.1,1.0,30.26,West,273,4.0,12.0,9,0.00,,,0.00,Wunderground v.1.15,2013-01-22 23:01:00,
2013-01-22 16:11:00,59.0,0.1,30.26,WNW,295,9.0,9.0,9,0.00,,,0.00,Wunderground v.1.15,2013-01-22 23:11:00,
2013-01-22 16:31:00,58.7,2.2,30.26,West,268,5.0,5.0,10,0.00,,,0.00,Wunderground v.1.15,2013-01-22 23:31:00,
2013-01-22 16:42:00,58.0,3.7,30.26,WSW,255,6.0,12.0,11,0.00,,,0.00,Wunderground v.1.15,2013-01-22 23:42:00,
2013-01-22 16:51:00,57.3,5.0,30.26,WNW,283,5.0,5.0,12,0.00,,,0.00,Wunderground v.1.15,2013-01-22 23:51:00,
2013-01-22 17:02:00,56.2,4.2,30.26,NW,314,6.0,6.0,12,0.00,,,0.00,Wunderground v.1.15,2013-01-23 00:02:00,
2013-01-22 17:11:00,55.1,5.0,30.26,WNW,287,5.0,9.0,13,0.00,,,0.00,Wunderground v.1.15,2013-01-23 00:11:00,
2013-01-22 17:21:00,54.1,4.2,30.26,SW,231,2.0,2.0,13,0.00,,,0.00,Wunderground v.1.15,2013-01-23 00:21:00,
2013-01-22 17:31:00,52.5,4.6,30.27,ESE,120,0.0,2.0,14,0.00,,,0.00,Wunderground v.1.15,2013-01-23 00:31:00,
2013-01-22 17:41:00,51.3,5.1,30.27,ENE,78,1.0,1.0,15,0.00,,,0.00,Wunderground v.1.15,2013-01-23 00:41:00,
2013-01-22 17:51:00,50.8,4.7,30.28,WNW,300,1.0,2.0,15,0.00,,,0.00,Wunderground v.1.15,2013-01-23 00:51:00,
2013-01-22 18:01:00,50.1,5.6,30.29,NNW,347,0.0,2.0,16,0.00,,,0.00,Wunderground v.1.15,2013-01-23 01:01:00,
2013-01-22 18:11:00,49.8,6.7,30.29,NW,306,1.0,1.0,17,0.00,,,0.00,Wunderground v.1.15,2013-01-23 01:11:00,
2013-01-22 18:22:00,48.9,7.2,30.29,WNW,297,1.0,3.0,18,0.00,,,0.00,Wunderground v.1.15,2013-01-23 01:22:00,
2013-01-22 18:41:00,47.9,7.5,30.30,NW,307,3.0,7.0,19,0.00,,,0.00,Wunderground v.1.15,2013-01-23 01:41:00,
2013-01-22 18:51:00,47.7,7.4,30.29,NW,323,5.0,9.0,19,0.00,,,0.00,Wunderground v.1.15,2013-01-23 01:51:00,
2013-01-22 19:21:00,45.8,9.0,30.30,NNE,19,2.0,2.0,22,0.00,,,0.00,Wunderground v.1.15,2013-01-23 02:21:00,
2013-01-22 19:32:00,43.5,8.1,30.30,East,82,2.0,4.0,23,0.00,,,0.00,Wunderground v.1.15,2013-01-23 02:32:00,
2013-01-22 19:41:00,41.9,8.6,30.30,East,93,1.0,4.0,25,0.00,,,0.00,Wunderground v.1.15,2013-01-23 02:41:00,
2013-01-22 19:51:00,42.5,10.0,30.31,ENE,71,1.0,1.0,26,0.00,,,0.00,Wunderground v.1.15,2013-01-23 02:51:00,
2013-01-22 20:01:00,41.8,10.2,30.31,ENE,71,0.0,1.0,27,0.00,,,0.00,Wunderground v.1.15,2013-01-23 03:01:00,
2013-01-22 20:11:00,39.9,9.4,30.31,ENE,71,0.0,0.0,28,0.00,,,0.00,Wunderground v.1.15,2013-01-23 03:11:00,
2013-01-22 20:21:00,39.6,8.3,30.31,ENE,63,0.0,1.0,27,0.00,,,0.00,Wunderground v.1.15,2013-01-23 03:21:00,
2013-01-22 20:31:00,41.1,10.4,30.32,NE,53,1.0,3.0,28,0.00,,,0.00,Wunderground v.1.15,2013-01-23 03:31:00,
2013-01-22 20:41:00,40.8,10.2,30.32,NE,49,1.0,3.0,28,0.00,,,0.00,Wunderground v.1.15,2013-01-23 03:41:00,
2013-01-22 20:51:00,37.3,7.1,30.32,NE,49,0.0,1.0,28,0.00,,,0.00,Wunderground v.1.15,2013-01-23 03:51:00,
2013-01-22 21:01:00,35.8,8.1,30.33,NE,48,0.0,1.0,31,0.00,,,0.00,Wunderground v.1.15,2013-01-23 04:01:00,
2013-01-22 21:11:00,34.3,8.1,30.33,NE,47,0.0,0.0,33,0.00,,,0.00,Wunderground v.1.15,2013-01-23 04:11:00,
2013-01-22 21:41:00,34.6,10.3,30.34,NE,46,1.0,1.0,36,0.00,,,0.00,Wunderground v.1.15,2013-01-23 04:41:00,
2013-01-22 21:51:00,34.4,10.2,30.35,NE,46,0.0,1.0,36,0.00,,,0.00,Wunderground v.1.15,2013-01-23 04:51:00,
2013-01-22 22:21:00,33.4,11.1,30.36,NE,55,0.0,1.0,39,0.00,,,0.00,Wunderground v.1.15,2013-01-23 05:21:00,
2013-01-22 22:31:00,32.8,11.6,30.37,NE,41,0.0,3.0,41,0.00,,,0.00,Wunderground v.1.15,2013-01-23 05:31:00,
2013-01-22 22:41:00,32.8,12.2,30.37,NNE,28,1.0,1.0,42,0.00,,,0.00,Wunderground v.1.15,2013-01-23 05:41:00,
2013-01-22 22:51:00,33.5,12.3,30.37,NNE,28,2.0,2.0,41,0.00,,,0.00,Wunderground v.1.15,2013-01-23 05:51:00,
2013-01-22 23:01:00,33.1,11.9,30.37,NNE,31,2.0,2.0,41,0.00,,,0.00,Wunderground v.1.15,2013-01-23 06:01:00,
2013-01-22 23:11:00,32.8,12.7,30.37,NNE,31,1.0,3.0,43,0.00,,,0.00,Wunderground v.1.15,2013-01-23 06:11:00,
2013-01-22 23:31:00,29.8,11.5,30.37,NNE,31,0.0,1.0,46,0.00,,,0.00,Wunderground v.1.15,2013-01-23 06:31:00,
2013-01-22 23:41:00,28.8,11.1,30.37,NNE,31,0.0,0.0,47,0.00,,,0.00,Wunderground v.1.15,2013-01-23 06:41:00,
2013-01-22 23:51:00,28.7,11.9,30.37,NNE,31,0.0,2.0,49,0.00,,,0.00,Wunderground v.1.15,2013-01-23 06:51:00,